Time;durP1;ratioP1;P1;durP2;ratioP2;P2;SDS_P1;SDS_P2;PMS_P1;PMS_P2;Temp;Humidity;BMP_temperature;BMP_pressure;BME280_temperature;BME280_humidity;BME280_pressure;Samples;Min_cycle;Max_cycle;Signal;HPM_P1;HPM_P2
2022/10/06 00:01:14;;;;;;;2.67;1.10;;;17.30;99.90;;;;;;4874587;29;20894;-73
2022/10/06 00:03:45;;;;;;;3.80;1.47;;;17.30;99.90;;;;;;4876284;29;20460;-74
2022/10/06 00:06:17;;;;;;;2.30;1.40;;;17.30;99.90;;;;;;4847596;29;20944;-74
2022/10/06 00:08:46;;;;;;;1.87;1.20;;;17.30;99.90;;;;;;4883433;29;20429;-74
2022/10/06 00:11:14;;;;;;;1.60;1.30;;;17.30;99.90;;;;;;4855395;29;20418;-76
2022/10/06 00:13:40;;;;;;;2.30;1.27;;;17.30;99.90;;;;;;4852666;29;20831;-74
2022/10/06 00:16:16;;;;;;;2.20;1.10;;;17.20;99.90;;;;;;4882406;29;21041;-74
2022/10/06 00:18:48;;;;;;;1.70;1.27;;;17.20;99.90;;;;;;4859387;29;20801;-74
2022/10/06 00:21:16;;;;;;;3.13;1.10;;;17.20;99.90;;;;;;4859539;29;20468;-74
2022/10/06 00:23:43;;;;;;;4.77;1.67;;;17.20;99.90;;;;;;4865651;29;20534;-74
2022/10/06 00:26:15;;;;;;;1.17;0.90;;;17.20;99.90;;;;;;4856334;29;20500;-74
2022/10/06 00:28:50;;;;;;;1.33;1.00;;;17.20;99.90;;;;;;4865913;29;20824;-71
2022/10/06 00:31:19;;;;;;;13.30;1.33;;;17.20;99.90;;;;;;4858096;29;20450;-71
2022/10/06 00:33:50;;;;;;;2.40;1.10;;;17.20;99.90;;;;;;4854435;29;20466;-71
2022/10/06 00:36:27;;;;;;;3.27;1.00;;;17.20;99.90;;;;;;4853407;29;20574;-73
2022/10/06 00:38:56;;;;;;;2.13;1.00;;;17.20;99.90;;;;;;4862971;29;20458;-72
2022/10/06 00:41:22;;;;;;;1.00;0.80;;;17.20;99.90;;;;;;4879336;29;20431;-73
2022/10/06 00:43:58;;;;;;;2.13;0.90;;;17.10;99.90;;;;;;4892307;29;20455;-73
2022/10/06 00:46:42;;;;;;;2.30;0.97;;;17.10;99.90;;;;;;4860855;29;21003;-73
2022/10/06 00:49:17;;;;;;;1.57;0.80;;;17.20;99.90;;;;;;4856694;29;20800;-72
2022/10/06 00:51:51;;;;;;;2.90;1.20;;;17.10;99.90;;;;;;4866933;29;20433;-73
2022/10/06 00:54:22;;;;;;;2.63;1.20;;;17.10;99.90;;;;;;4854066;29;20505;-73
2022/10/06 00:56:51;;;;;;;5.20;1.17;;;17.10;99.90;;;;;;4876332;29;20962;-72
2022/10/06 00:59:18;;;;;;;2.50;1.00;;;17.10;99.90;;;;;;4878347;29;20421;-73
2022/10/06 01:01:58;;;;;;;1.90;1.00;;;17.10;99.90;;;;;;4889836;29;20413;-73
2022/10/06 01:04:33;;;;;;;1.30;1.20;;;17.10;99.90;;;;;;4873444;29;20473;-73
2022/10/06 01:07:09;;;;;;;2.97;1.20;;;17.10;99.90;;;;;;4855718;29;20481;-72
2022/10/06 01:09:38;;;;;;;1.70;0.97;;;17.10;99.90;;;;;;4861092;29;20458;-73
2022/10/06 01:12:06;;;;;;;2.03;1.30;;;17.10;99.90;;;;;;4853424;29;20831;-73
2022/10/06 01:14:40;;;;;;;1.73;1.10;;;17.10;99.90;;;;;;4873154;29;20437;-72
2022/10/06 01:17:20;;;;;;;1.23;0.93;;;17.00;99.90;;;;;;4857859;29;20790;-73
2022/10/06 01:20:16;;;;;;;3.13;1.17;;;17.00;99.90;;;;;;4882408;29;20440;-73
2022/10/06 01:23:04;;;;;;;3.60;1.07;;;17.00;99.90;;;;;;4840479;29;20449;-72
2022/10/06 01:25:32;;;;;;;4.43;1.50;;;17.00;99.90;;;;;;4868262;29;20505;-72
2022/10/06 01:28:06;;;;;;;1.20;0.90;;;17.00;99.90;;;;;;4887824;29;20424;-72
2022/10/06 01:30:49;;;;;;;2.50;0.90;;;17.00;99.90;;;;;;4860766;29;20455;-71
2022/10/06 01:33:16;;;;;;;1.57;0.90;;;17.00;99.90;;;;;;4860379;29;20554;-72
2022/10/06 01:35:51;;;;;;;2.23;1.10;;;17.00;99.90;;;;;;4888765;29;20470;-71
2022/10/06 01:38:18;;;;;;;2.50;1.00;;;17.00;99.90;;;;;;4873291;29;20468;-72
2022/10/06 01:40:49;;;;;;;2.00;1.10;;;17.00;99.90;;;;;;4879086;29;20434;-72
2022/10/06 01:43:17;;;;;;;4.93;1.20;;;16.90;99.90;;;;;;4863477;29;20441;-72
2022/10/06 01:45:57;;;;;;;3.30;1.50;;;16.90;99.90;;;;;;4876081;29;20460;-72
2022/10/06 01:48:26;;;;;;;2.57;1.33;;;16.90;99.90;;;;;;4866543;29;20468;-72
2022/10/06 01:50:53;;;;;;;2.30;1.10;;;16.90;99.90;;;;;;4864437;29;20428;-72
2022/10/06 01:53:19;;;;;;;1.83;0.90;;;16.90;99.90;;;;;;4895002;29;20475;-72
2022/10/06 01:55:45;;;;;;;2.40;1.10;;;16.90;99.90;;;;;;4877231;29;20467;-72
2022/10/06 01:58:15;;;;;;;1.80;0.97;;;16.90;99.90;;;;;;4851245;29;20520;-72
2022/10/06 02:00:42;;;;;;;2.00;1.17;;;16.90;99.90;;;;;;4892153;29;20409;-72
2022/10/06 02:03:10;;;;;;;2.60;1.03;;;16.90;99.90;;;;;;4863506;29;20427;-72
2022/10/06 02:05:42;;;;;;;4.13;1.10;;;16.90;99.90;;;;;;4894768;29;20560;-72
2022/10/06 02:08:14;;;;;;;2.67;1.50;;;16.90;99.90;;;;;;4849363;29;20463;-72
2022/10/06 02:10:46;;;;;;;1.80;1.27;;;16.90;99.90;;;;;;4885049;29;20949;-71
2022/10/06 02:13:22;;;;;;;1.67;1.07;;;16.90;99.90;;;;;;4848639;29;21010;-72
2022/10/06 02:15:57;;;;;;;5.10;1.50;;;16.80;99.90;;;;;;4854248;29;20459;-72
2022/10/06 02:18:25;;;;;;;1.67;1.10;;;16.80;99.90;;;;;;4894666;29;20423;-72
2022/10/06 02:20:58;;;;;;;2.90;1.57;;;16.80;99.90;;;;;;4838561;29;20523;-72
2022/10/06 02:23:24;;;;;;;3.20;1.60;;;16.80;99.90;;;;;;4845434;29;20441;-71
2022/10/06 02:26:00;;;;;;;4.00;1.50;;;16.80;99.90;;;;;;4879485;29;20458;-72
2022/10/06 02:28:35;;;;;;;1.90;1.43;;;16.80;99.90;;;;;;4882984;29;20467;-72
2022/10/06 02:31:09;;;;;;;2.03;1.10;;;16.80;99.90;;;;;;4892843;29;20461;-72
2022/10/06 02:33:37;;;;;;;3.10;1.33;;;16.80;99.90;;;;;;4861910;29;20492;-71
2022/10/06 02:36:07;;;;;;;2.77;1.40;;;16.80;99.90;;;;;;4893452;29;20440;-72
2022/10/06 02:38:41;;;;;;;2.10;1.03;;;16.80;99.90;;;;;;4875903;29;20436;-72
2022/10/06 02:41:10;;;;;;;5.23;1.20;;;16.80;99.90;;;;;;4869130;29;20460;-72
2022/10/06 02:43:37;;;;;;;3.13;1.23;;;16.80;99.90;;;;;;4878429;29;20428;-72
2022/10/06 02:46:15;;;;;;;2.70;1.27;;;16.80;99.90;;;;;;4862543;29;20794;-72
2022/10/06 02:48:50;;;;;;;4.60;1.67;;;16.80;99.90;;;;;;4865880;29;20468;-72
2022/10/06 02:51:18;;;;;;;2.50;1.30;;;16.70;99.90;;;;;;4877161;29;20969;-72
2022/10/06 02:53:48;;;;;;;3.97;1.23;;;16.70;99.90;;;;;;4855466;29;20542;-72
2022/10/06 02:56:21;;;;;;;1.90;1.10;;;16.70;99.90;;;;;;4878676;29;20460;-72
2022/10/06 02:58:48;;;;;;;2.40;1.30;;;16.70;99.90;;;;;;4868273;29;20439;-72
2022/10/06 03:01:26;;;;;;;3.37;1.63;;;16.70;99.90;;;;;;4864140;29;20479;-72
2022/10/06 03:03:54;;;;;;;3.00;1.20;;;16.70;99.90;;;;;;4860991;29;20443;-72
2022/10/06 03:06:25;;;;;;;3.33;1.40;;;16.70;99.90;;;;;;4875333;29;20893;-72
2022/10/06 03:09:00;;;;;;;4.93;1.37;;;16.70;99.90;;;;;;4865042;29;20474;-72
2022/10/06 03:11:31;;;;;;;2.07;1.30;;;16.70;99.90;;;;;;4820275;29;20530;-72
2022/10/06 03:14:00;;;;;;;4.77;1.60;;;16.60;99.90;;;;;;4878580;29;20455;-72
2022/10/06 03:16:43;;;;;;;4.10;1.60;;;16.60;99.90;;;;;;4862085;29;20815;-72
2022/10/06 03:19:15;;;;;;;3.70;1.30;;;16.60;99.90;;;;;;4885718;29;20441;-72
2022/10/06 03:21:43;;;;;;;2.50;1.37;;;16.60;99.90;;;;;;4893638;29;20448;-71
2022/10/06 03:24:11;;;;;;;2.50;1.73;;;16.60;99.90;;;;;;4859225;29;20447;-72
2022/10/06 03:26:41;;;;;;;5.50;1.73;;;16.60;99.90;;;;;;4880630;29;20458;-72
2022/10/06 03:29:08;;;;;;;4.10;1.57;;;16.60;99.90;;;;;;4835972;29;20420;-72
2022/10/06 03:31:37;;;;;;;3.77;1.60;;;16.60;99.90;;;;;;4877882;29;20496;-72
2022/10/06 03:34:06;;;;;;;8.53;2.07;;;16.60;99.90;;;;;;4881723;29;20842;-72
2022/10/06 03:36:37;;;;;;;6.90;1.90;;;16.60;99.90;;;;;;4874185;29;20472;-72
2022/10/06 03:39:07;;;;;;;2.50;1.80;;;16.50;99.90;;;;;;4875215;29;20420;-72
2022/10/06 03:41:36;;;;;;;3.77;1.50;;;16.50;99.90;;;;;;4874845;29;20491;-72
2022/10/06 03:44:03;;;;;;;4.30;1.37;;;16.50;99.90;;;;;;4869938;29;20445;-72
2022/10/06 03:46:34;;;;;;;6.47;1.70;;;16.50;99.90;;;;;;4877520;29;20826;-73
2022/10/06 03:49:05;;;;;;;3.53;1.57;;;16.50;99.90;;;;;;4839095;29;20444;-72
2022/10/06 03:51:37;;;;;;;1.90;1.30;;;16.50;99.90;;;;;;4878093;29;20435;-72
2022/10/06 03:54:06;;;;;;;4.93;1.70;;;16.50;99.90;;;;;;4875521;29;20473;-71
2022/10/06 03:56:40;;;;;;;3.23;1.60;;;16.50;99.90;;;;;;4891518;29;20440;-72
2022/10/06 03:59:15;;;;;;;4.80;1.70;;;16.50;99.90;;;;;;4846329;29;20979;-72
2022/10/06 04:02:11;;;;;;;2.70;1.30;;;16.50;99.90;;;;;;4874040;29;20964;-72
2022/10/06 04:05:00;;;;;;;3.97;2.30;;;16.50;99.90;;;;;;4867985;29;20969;-72
2022/10/06 04:07:26;;;;;;;2.50;1.33;;;16.50;99.90;;;;;;4879348;29;20447;-72
2022/10/06 04:09:52;;;;;;;7.10;2.13;;;16.40;99.90;;;;;;4851015;29;20210;-72
2022/10/06 04:12:30;;;;;;;5.90;1.23;;;16.40;99.90;;;;;;4873039;29;20836;-72
2022/10/06 04:14:58;;;;;;;5.30;1.37;;;16.40;99.90;;;;;;4868317;29;20445;-72
2022/10/06 04:17:31;;;;;;;4.10;1.80;;;16.40;99.90;;;;;;4848888;29;20462;-72
2022/10/06 04:20:02;;;;;;;3.33;1.40;;;16.40;99.90;;;;;;4876449;29;20485;-72
2022/10/06 04:22:28;;;;;;;5.07;1.70;;;16.40;99.90;;;;;;4856414;29;20464;-72
2022/10/06 04:24:58;;;;;;;2.57;1.30;;;16.40;99.90;;;;;;4868616;29;20953;-72
2022/10/06 04:27:29;;;;;;;2.73;1.67;;;16.40;99.90;;;;;;4877681;29;20556;-72
2022/10/06 04:30:05;;;;;;;4.17;1.90;;;16.30;99.90;;;;;;4892195;29;20409;-72
2022/10/06 04:32:32;;;;;;;3.23;1.90;;;16.30;99.90;;;;;;4839692;29;20818;-72
2022/10/06 04:35:19;;;;;;;5.20;1.40;;;16.30;99.90;;;;;;4833075;29;20972;-72
2022/10/06 04:37:48;;;;;;;4.03;1.43;;;16.30;99.90;;;;;;4859012;29;20573;-72
2022/10/06 04:40:14;;;;;;;4.27;1.70;;;16.30;99.90;;;;;;4861397;29;20434;-73
2022/10/06 04:42:45;;;;;;;5.13;1.70;;;16.30;99.90;;;;;;4851892;29;20450;-72
2022/10/06 04:45:14;;;;;;;5.97;1.83;;;16.30;99.90;;;;;;4868326;29;20465;-72
2022/10/06 04:47:41;;;;;;;7.30;1.97;;;16.30;99.90;;;;;;4850395;29;20461;-72
2022/10/06 04:50:12;;;;;;;3.53;1.47;;;16.30;99.90;;;;;;4843111;29;20437;-72
2022/10/06 04:52:58;;;;;;;4.27;1.53;;;16.20;99.90;;;;;;4860390;29;20476;-72
2022/10/06 04:55:25;;;;;;;4.70;1.57;;;16.20;99.90;;;;;;4834300;29;20480;-71
2022/10/06 04:57:51;;;;;;;4.83;2.07;;;16.20;99.90;;;;;;4857562;29;20436;-72
2022/10/06 05:00:24;;;;;;;4.17;2.00;;;16.20;99.90;;;;;;4857910;29;20423;-72
2022/10/06 05:02:56;;;;;;;6.00;1.57;;;16.20;99.90;;;;;;4859287;29;20530;-72
2022/10/06 05:05:25;;;;;;;7.57;2.17;;;16.20;99.90;;;;;;4865590;29;20440;-72
2022/10/06 05:07:55;;;;;;;4.10;1.50;;;16.20;99.90;;;;;;4858239;29;20498;-72
2022/10/06 05:10:21;;;;;;;5.07;1.70;;;16.20;99.90;;;;;;4858405;29;20442;-72
2022/10/06 05:13:14;;;;;;;7.03;1.83;;;16.20;99.80;;;;;;4870523;29;20464;-72
2022/10/06 05:15:42;;;;;;;5.77;1.80;;;16.20;99.90;;;;;;4885582;29;20427;-72
2022/10/06 05:18:37;;;;;;;3.20;1.70;;;16.10;99.80;;;;;;4848711;29;20540;-72
2022/10/06 05:21:09;;;;;;;5.93;2.00;;;16.10;99.80;;;;;;4854324;29;20789;-72
2022/10/06 05:23:37;;;;;;;4.00;2.27;;;16.10;99.80;;;;;;4865391;29;20435;-73
2022/10/06 05:26:05;;;;;;;3.97;1.50;;;16.10;99.80;;;;;;4872025;29;20453;-72
2022/10/06 05:28:34;;;;;;;8.53;2.33;;;16.10;99.80;;;;;;4879773;29;20527;-72
2022/10/06 05:31:04;;;;;;;5.40;1.73;;;16.10;99.80;;;;;;4872402;29;20436;-72
2022/10/06 05:33:42;;;;;;;3.87;1.40;;;16.10;99.80;;;;;;4854478;29;20476;-71
2022/10/06 05:36:13;;;;;;;7.67;2.00;;;16.10;99.70;;;;;;4864618;29;20511;-72
2022/10/06 05:38:42;;;;;;;4.80;1.90;;;16.10;99.70;;;;;;4856311;29;20467;-72
2022/10/06 05:41:29;;;;;;;2.93;1.90;;;16.10;99.70;;;;;;4870797;29;20435;-71
2022/10/06 05:44:03;;;;;;;3.70;1.57;;;16.00;99.70;;;;;;4863180;29;20518;-71
2022/10/06 05:46:33;;;;;;;4.10;1.80;;;16.10;99.70;;;;;;4872497;29;20452;-70
2022/10/06 05:49:05;;;;;;;7.87;1.80;;;16.00;99.70;;;;;;4860078;29;20443;-71
2022/10/06 05:51:35;;;;;;;7.63;1.90;;;16.00;99.70;;;;;;4882422;29;20477;-72
2022/10/06 05:54:09;;;;;;;3.30;1.73;;;16.00;99.60;;;;;;4853726;29;20455;-71
2022/10/06 05:56:38;;;;;;;4.57;1.40;;;16.00;99.60;;;;;;4865462;29;20526;-72
2022/10/06 05:59:07;;;;;;;5.87;1.77;;;16.00;99.60;;;;;;4892414;29;20427;-72
2022/10/06 06:01:43;;;;;;;5.10;1.60;;;16.00;99.60;;;;;;4876622;29;20432;-72
2022/10/06 06:04:17;;;;;;;4.80;1.90;;;16.00;99.60;;;;;;4862633;29;20459;-71
2022/10/06 06:06:49;;;;;;;5.07;1.43;;;16.00;99.60;;;;;;4865908;29;20456;-72
2022/10/06 06:09:22;;;;;;;4.80;1.50;;;16.00;99.60;;;;;;4876240;29;20438;-72
2022/10/06 06:12:08;;;;;;;3.37;1.53;;;15.90;99.50;;;;;;4862949;29;20548;-72
2022/10/06 06:18:06;;;;;;;4.23;1.87;;;15.90;99.40;;;;;;4893653;29;20555;-72
2022/10/06 06:20:35;;;;;;;5.67;2.37;;;15.90;99.40;;;;;;4895165;29;20812;-72
2022/10/06 06:23:01;;;;;;;6.53;1.90;;;15.90;99.40;;;;;;4849620;29;20433;-74
2022/10/06 06:25:27;;;;;;;3.73;1.60;;;15.90;99.40;;;;;;4865927;29;20195;-72
2022/10/06 06:27:56;;;;;;;4.40;1.47;;;15.80;99.40;;;;;;4875166;29;20954;-72
2022/10/06 06:30:24;;;;;;;5.83;2.17;;;15.90;99.40;;;;;;4894690;29;20529;-72
2022/10/06 06:32:56;;;;;;;5.73;1.93;;;15.80;99.40;;;;;;4894811;29;20505;-72
2022/10/06 06:35:23;;;;;;;4.07;1.70;;;15.80;99.30;;;;;;4879301;29;20483;-71
2022/10/06 06:37:52;;;;;;;8.13;1.97;;;15.80;99.30;;;;;;4875982;29;20438;-72
2022/10/06 06:40:20;;;;;;;6.60;2.00;;;15.80;99.30;;;;;;4875817;29;20831;-72
2022/10/06 06:43:08;;;;;;;4.60;2.83;;;15.80;99.30;;;;;;4860841;29;20445;-72
2022/10/06 06:45:52;;;;;;;4.23;1.70;;;15.80;99.20;;;;;;4860627;29;21000;-72
2022/10/06 06:48:29;;;;;;;2.97;1.70;;;15.80;99.20;;;;;;4844837;29;20456;-71
2022/10/06 06:50:57;;;;;;;7.83;2.17;;;15.80;99.20;;;;;;4875959;29;20440;-72
2022/10/06 06:53:24;;;;;;;4.87;1.93;;;15.80;99.30;;;;;;4860254;29;20447;-72
2022/10/06 06:55:54;;;;;;;5.90;2.10;;;15.80;99.30;;;;;;4875579;29;20447;-72
2022/10/06 06:58:26;;;;;;;8.10;2.10;;;15.80;99.20;;;;;;4860222;29;20415;-71
2022/10/06 07:01:02;;;;;;;7.27;1.67;;;15.70;99.10;;;;;;4861371;29;20444;-72
2022/10/06 07:03:33;;;;;;;5.77;1.57;;;15.70;99.10;;;;;;4844968;29;20501;-72
2022/10/06 07:06:12;;;;;;;3.87;2.10;;;15.70;99.10;;;;;;4844856;29;20857;-72
2022/10/06 07:08:41;;;;;;;6.70;2.10;;;15.70;99.10;;;;;;4872285;29;20468;-72
2022/10/06 07:11:12;;;;;;;7.07;2.40;;;15.70;99.10;;;;;;4857055;29;20429;-71
2022/10/06 07:13:42;;;;;;;5.67;2.00;;;15.70;99.10;;;;;;4841313;29;20488;-72
2022/10/06 07:27:37;;;;;;;7.20;1.80;;;15.60;99.00;;;;;;4844497;29;20448;-72
2022/10/06 07:30:04;;;;;;;6.10;2.00;;;15.60;98.90;;;;;;4860399;29;20418;-72
2022/10/06 07:32:33;;;;;;;5.27;2.03;;;15.60;99.00;;;;;;4874324;29;20469;-71
2022/10/06 07:35:03;;;;;;;6.50;2.20;;;15.60;99.00;;;;;;4844508;29;20437;-72
2022/10/06 07:37:29;;;;;;;6.50;2.20;;;15.60;98.90;;;;;;4859738;29;20821;-72
2022/10/06 07:39:59;;;;;;;5.43;2.20;;;15.60;98.90;;;;;;4859153;29;20438;-72
2022/10/06 07:42:25;;;;;;;7.47;2.33;;;15.60;98.80;;;;;;4874740;29;20416;-72
2022/10/06 07:47:48;;;;;;;7.73;2.70;;;15.60;98.70;;;;;;4859986;29;20528;-72
2022/10/06 07:50:14;;;;;;;11.63;2.30;;;15.60;98.70;;;;;;4858584;29;20793;-72
2022/10/06 07:52:46;;;;;;;5.50;2.03;;;15.60;98.70;;;;;;4844101;29;20463;-72
2022/10/06 07:55:40;;;;;;;10.77;2.40;;;15.50;98.60;;;;;;4851362;29;20460;-71
2022/10/06 07:58:22;;;;;;;5.87;2.30;;;15.60;98.70;;;;;;4859270;29;20874;-72
2022/10/06 08:00:51;;;;;;;6.83;2.30;;;15.60;98.70;;;;;;4843697;29;20409;-72
2022/10/06 08:03:18;;;;;;;7.23;2.30;;;15.60;98.70;;;;;;4858468;29;20435;-72
2022/10/06 08:06:01;;;;;;;6.00;2.50;;;15.60;98.70;;;;;;4845459;29;20998;-71
2022/10/06 08:08:31;;;;;;;9.03;2.40;;;15.60;98.70;;;;;;4873680;29;20441;-71
2022/10/06 08:10:58;;;;;;;13.40;2.80;;;15.50;98.60;;;;;;4859152;29;20459;-72
2022/10/06 08:13:27;;;;;;;6.70;2.33;;;15.60;98.70;;;;;;4860050;29;20866;-71
2022/10/06 08:15:55;;;;;;;7.67;2.40;;;15.50;98.60;;;;;;4858977;29;20813;-72
2022/10/06 08:18:21;;;;;;;6.03;2.60;;;15.60;98.60;;;;;;4859757;29;20435;-72
2022/10/06 08:20:47;;;;;;;6.20;2.30;;;15.60;98.60;;;;;;4858840;29;20443;-72
2022/10/06 08:23:13;;;;;;;6.20;2.47;;;15.60;98.60;;;;;;4859191;29;20435;-72
2022/10/06 08:25:53;;;;;;;8.57;2.43;;;15.50;98.50;;;;;;4858826;29;20529;-72
2022/10/06 08:28:21;;;;;;;6.03;2.03;;;15.60;98.50;;;;;;4858610;29;20451;-72
2022/10/06 08:30:50;;;;;;;8.87;2.40;;;15.50;98.40;;;;;;4874036;29;20417;-72
2022/10/06 08:33:16;;;;;;;10.77;3.20;;;15.60;98.50;;;;;;4858606;29;20863;-72
2022/10/06 08:35:52;;;;;;;8.70;2.20;;;15.60;98.50;;;;;;4859670;29;20543;-72
2022/10/06 08:38:20;;;;;;;7.03;2.47;;;15.60;98.50;;;;;;4949642;23;20609;-75
2022/10/06 08:40:51;;;;;;;7.13;2.30;;;15.60;98.50;;;;;;4916909;29;20213;-75
2022/10/06 08:43:21;;;;;;;6.07;1.80;;;15.60;98.50;;;;;;4930663;29;20775;-75
2022/10/06 08:45:58;;;;;;;9.20;2.53;;;15.50;98.50;;;;;;4918990;29;20440;-75
2022/10/06 08:48:37;;;;;;;9.23;2.40;;;15.60;98.50;;;;;;4918408;29;20433;-76
2022/10/06 08:51:29;;;;;;;8.23;3.17;;;15.60;98.40;;;;;;4933996;29;20488;-75
2022/10/06 08:54:28;;;;;;;6.83;2.10;;;15.60;98.40;;;;;;4934729;29;20522;-75
2022/10/06 08:57:27;;;;;;;6.77;2.60;;;15.60;98.30;;;;;;4949674;29;20444;-75
2022/10/06 08:59:58;;;;;;;10.07;2.87;;;15.60;98.30;;;;;;4934618;29;20445;-75
2022/10/06 09:02:29;;;;;;;7.57;2.50;;;15.60;98.30;;;;;;4934771;29;20405;-75
2022/10/06 09:05:03;;;;;;;13.53;2.97;;;15.60;98.30;;;;;;4902558;29;20443;-75
2022/10/06 09:07:47;;;;;;;7.70;2.10;;;15.60;98.30;;;;;;4927883;29;20932;-76
2022/10/06 09:10:28;;;;;;;7.77;2.57;;;15.60;98.20;;;;;;4915500;29;20846;-75
2022/10/06 09:12:58;;;;;;;8.27;3.00;;;15.60;98.20;;;;;;4928747;29;20464;-75
2022/10/06 09:15:27;;;;;;;9.37;2.40;;;15.60;98.10;;;;;;4928543;29;20477;-75
2022/10/06 09:18:16;;;;;;;10.80;2.47;;;15.70;98.20;;;;;;4930433;29;20404;-75
2022/10/06 09:20:55;;;;;;;12.43;2.90;;;15.70;98.10;;;;;;4914625;29;20916;-75
2022/10/06 09:26:14;;;;;;;8.67;2.63;;;15.70;98.10;;;;;;4930577;29;21010;-75
2022/10/06 09:28:46;;;;;;;8.33;2.90;;;15.70;98.00;;;;;;4899080;29;20593;-75
2022/10/06 09:31:18;;;;;;;7.70;2.30;;;15.70;98.00;;;;;;4915782;29;20773;-75
2022/10/06 09:33:45;;;;;;;9.73;3.70;;;15.70;98.00;;;;;;4914686;29;20461;-75
2022/10/06 09:36:12;;;;;;;5.17;2.07;;;15.70;98.00;;;;;;4899126;29;20914;-75
2022/10/06 09:38:46;;;;;;;13.43;3.00;;;15.80;98.00;;;;;;4928145;29;20441;-75
2022/10/06 09:41:15;;;;;;;7.23;2.13;;;15.80;98.00;;;;;;4933640;29;20900;-75
2022/10/06 09:44:01;;;;;;;8.73;2.30;;;15.80;98.00;;;;;;4934847;29;20900;-75
2022/10/06 09:46:38;;;;;;;6.40;2.13;;;15.80;98.00;;;;;;4917830;29;20454;-76
2022/10/06 09:49:14;;;;;;;9.30;1.93;;;15.90;98.00;;;;;;4934600;29;20407;-75
2022/10/06 09:52:10;;;;;;;11.10;1.97;;;15.90;98.10;;;;;;4933565;29;20478;-76
2022/10/06 09:54:40;;;;;;;16.47;3.10;;;15.90;98.00;;;;;;4933433;29;20503;-75
2022/10/06 09:57:13;;;;;;;8.97;3.23;;;15.90;97.90;;;;;;4917813;29;20439;-75
2022/10/06 09:59:44;;;;;;;8.60;2.30;;;15.90;97.90;;;;;;4933468;29;20888;-75
2022/10/06 10:02:39;;;;;;;5.23;1.87;;;16.00;97.80;;;;;;4933145;29;20449;-75
2022/10/06 10:05:27;;;;;;;11.27;3.00;;;16.00;97.70;;;;;;4933713;29;20848;-75
2022/10/06 10:08:17;;;;;;;5.37;1.97;;;16.00;97.60;;;;;;4925714;29;20447;-75
2022/10/06 10:10:44;;;;;;;7.43;2.40;;;16.00;97.70;;;;;;4904213;29;20464;-75
2022/10/06 10:13:42;;;;;;;12.13;2.10;;;16.00;97.60;;;;;;4934740;29;20464;-76
2022/10/06 10:16:18;;;;;;;9.10;2.40;;;16.00;97.50;;;;;;4938115;29;20503;-75
2022/10/06 10:18:50;;;;;;;7.23;2.00;;;16.10;97.60;;;;;;4905100;29;20507;-75
2022/10/06 10:21:28;;;;;;;8.20;2.33;;;16.10;97.50;;;;;;4937766;29;20407;-75
2022/10/06 10:23:57;;;;;;;9.27;2.13;;;16.10;97.30;;;;;;4951591;29;20782;-75
2022/10/06 10:26:45;;;;;;;8.67;2.30;;;16.10;97.20;;;;;;4913652;29;20456;-76
2022/10/06 10:29:36;;;;;;;6.83;2.60;;;16.10;97.00;;;;;;4914729;29;20437;-76
2022/10/06 10:32:16;;;;;;;6.73;2.17;;;16.20;97.30;;;;;;4902145;29;20445;-76
2022/10/06 10:34:48;;;;;;;5.10;1.77;;;16.20;97.00;;;;;;4918990;29;20854;-76
2022/10/06 10:37:29;;;;;;;4.93;1.77;;;16.20;97.00;;;;;;4934476;29;20820;-74
2022/10/06 10:39:55;;;;;;;13.97;2.90;;;16.20;97.10;;;;;;4936795;29;20482;-75
2022/10/06 10:42:40;;;;;;;8.43;2.10;;;16.20;97.10;;;;;;4925976;29;20434;-75
2022/10/06 10:45:19;;;;;;;7.80;1.60;;;16.20;97.30;;;;;;4926479;29;20196;-75
2022/10/06 10:47:50;;;;;;;5.97;2.40;;;16.30;96.70;;;;;;4901908;29;20439;-76
2022/10/06 10:50:34;;;;;;;10.17;2.27;;;16.20;96.60;;;;;;4918029;29;20449;-75
2022/10/06 10:53:29;;;;;;;6.47;2.00;;;16.20;96.60;;;;;;4926825;29;20465;-77
2022/10/06 10:56:18;;;;;;;4.20;1.90;;;16.30;96.60;;;;;;4916783;29;20968;-77
2022/10/06 10:58:49;;;;;;;7.80;2.73;;;16.30;96.50;;;;;;4918041;29;20436;-75
2022/10/06 11:01:48;;;;;;;5.93;2.13;;;16.30;96.40;;;;;;4877875;29;21015;-74
2022/10/06 11:04:14;;;;;;;5.83;1.60;;;16.30;96.30;;;;;;4893733;29;20472;-75
2022/10/06 11:06:59;;;;;;;5.60;1.73;;;16.30;95.90;;;;;;4881339;29;20476;-76
2022/10/06 11:09:36;;;;;;;5.90;2.30;;;16.40;95.90;;;;;;4894870;29;20433;-73
2022/10/06 11:12:33;;;;;;;4.47;2.00;;;16.30;95.80;;;;;;4882311;29;20778;-73
2022/10/06 11:15:02;;;;;;;3.03;1.43;;;16.40;95.60;;;;;;4894837;29;20945;-75
2022/10/06 11:17:42;;;;;;;4.00;1.63;;;16.40;95.60;;;;;;4879261;29;20454;-73
2022/10/06 11:20:30;;;;;;;3.57;1.80;;;16.40;95.40;;;;;;4877644;29;20472;-74
2022/10/06 11:23:17;;;;;;;5.60;1.80;;;16.40;95.30;;;;;;4878881;29;20407;-74
2022/10/06 11:25:46;;;;;;;3.77;1.43;;;16.40;95.10;;;;;;4879193;29;20523;-73
2022/10/06 11:28:26;;;;;;;7.40;1.93;;;16.40;95.10;;;;;;4878863;29;20408;-74
2022/10/06 11:30:58;;;;;;;5.50;1.80;;;16.50;95.10;;;;;;4878796;29;20413;-74
2022/10/06 11:33:49;;;;;;;3.73;1.27;;;16.50;95.10;;;;;;4878882;29;20459;-74
2022/10/06 11:36:56;;;;;;;6.60;1.63;;;16.50;94.80;;;;;;4877163;29;20453;-75
2022/10/06 11:39:30;;;;;;;3.90;1.60;;;16.50;94.80;;;;;;4898623;29;20457;-75
2022/10/06 11:42:23;;;;;;;3.67;1.43;;;16.50;94.90;;;;;;4916167;29;20497;-75
2022/10/06 11:45:12;;;;;;;3.47;1.67;;;16.60;95.10;;;;;;4915862;29;20541;-75
2022/10/06 11:47:58;;;;;;;6.63;1.70;;;16.60;94.90;;;;;;4931632;29;20452;-74
2022/10/06 11:50:39;;;;;;;7.23;2.07;;;16.60;94.80;;;;;;4915735;29;20411;-74
2022/10/06 11:53:27;;;;;;;6.47;1.73;;;16.60;94.70;;;;;;4923689;29;21274;-75
2022/10/06 11:56:19;;;;;;;3.80;2.00;;;16.60;94.60;;;;;;4935188;29;20440;-76
2022/10/06 11:58:51;;;;;;;6.40;1.70;;;16.60;94.60;;;;;;4910981;29;20844;-76
2022/10/06 12:01:33;;;;;;;4.67;1.80;;;16.70;94.60;;;;;;4922056;29;20409;-75
2022/10/06 12:04:08;;;;;;;6.47;1.83;;;16.60;94.40;;;;;;4934442;29;20957;-75
2022/10/06 12:06:46;;;;;;;2.47;1.10;;;16.70;94.30;;;;;;4925833;29;20457;-75
2022/10/06 12:09:41;;;;;;;6.37;1.90;;;16.70;94.30;;;;;;4921916;29;20621;-75
2022/10/06 12:12:07;;;;;;;5.60;2.13;;;16.70;94.30;;;;;;4912711;29;20434;-75
2022/10/06 12:14:53;;;;;;;4.10;1.50;;;16.70;94.20;;;;;;4932382;29;20881;-75
2022/10/06 12:17:35;;;;;;;5.20;1.83;;;16.70;94.10;;;;;;4915381;29;20493;-75
2022/10/06 12:20:38;;;;;;;3.60;1.40;;;16.70;94.00;;;;;;4932255;29;20425;-75
2022/10/06 12:23:16;;;;;;;3.50;1.67;;;16.80;94.00;;;;;;4912458;29;20417;-75
2022/10/06 12:25:52;;;;;;;6.20;1.83;;;16.80;93.80;;;;;;4899526;29;20447;-75
2022/10/06 12:29:06;;;;;;;3.20;1.30;;;16.80;93.70;;;;;;4918927;29;20465;-75
2022/10/06 12:31:59;;;;;;;3.60;1.50;;;16.80;93.70;;;;;;4918685;29;20999;-75
2022/10/06 12:34:59;;;;;;;5.33;1.60;;;16.80;93.50;;;;;;4901366;29;20494;-75
2022/10/06 12:37:51;;;;;;;4.73;1.77;;;16.80;93.50;;;;;;4885091;29;20500;-75
2022/10/06 12:40:39;;;;;;;4.53;1.60;;;16.80;93.30;;;;;;4912707;29;20455;-75
2022/10/06 12:43:19;;;;;;;3.30;1.53;;;16.80;93.10;;;;;;4920933;29;20500;-75
2022/10/06 12:46:12;;;;;;;4.90;1.60;;;16.80;93.20;;;;;;4917872;29;21044;-75
2022/10/06 12:48:50;;;;;;;3.67;1.60;;;16.90;93.20;;;;;;4932018;29;20445;-75
2022/10/06 12:51:37;;;;;;;6.87;1.60;;;16.90;93.20;;;;;;4933866;29;20417;-75
2022/10/06 12:54:27;;;;;;;9.43;2.13;;;16.90;92.90;;;;;;4934125;29;20985;-75
2022/10/06 12:57:22;;;;;;;5.10;1.63;;;16.90;92.90;;;;;;4933503;29;20441;-75
2022/10/06 12:59:48;;;;;;;5.20;1.83;;;16.90;92.80;;;;;;4899680;29;20441;-75
2022/10/06 13:02:28;;;;;;;6.60;1.50;;;16.90;92.70;;;;;;4915726;29;20502;-75
2022/10/06 13:04:57;;;;;;;4.90;1.70;;;16.90;92.80;;;;;;4909249;29;20417;-75
2022/10/06 13:07:32;;;;;;;3.47;1.40;;;17.00;92.90;;;;;;4921494;29;20547;-76
2022/10/06 13:10:18;;;;;;;5.23;1.80;;;17.00;92.80;;;;;;4949171;29;20410;-75
2022/10/06 13:12:46;;;;;;;3.47;1.10;;;17.00;92.60;;;;;;4924085;29;20450;-75
2022/10/06 13:15:40;;;;;;;4.80;2.17;;;17.00;92.50;;;;;;4883505;29;20418;-75
2022/10/06 13:18:09;;;;;;;3.90;1.40;;;17.00;92.50;;;;;;4926653;29;20536;-72
2022/10/06 13:20:49;;;;;;;3.07;1.40;;;17.00;92.50;;;;;;4933560;29;20418;-72
2022/10/06 13:23:38;;;;;;;2.80;1.43;;;17.00;92.30;;;;;;4920102;29;20440;-73
2022/10/06 13:26:05;;;;;;;3.93;1.40;;;17.00;92.20;;;;;;4914318;29;20481;-72
2022/10/06 13:28:43;;;;;;;4.83;1.53;;;17.00;92.30;;;;;;4929292;29;20429;-73
2022/10/06 13:31:30;;;;;;;5.23;1.40;;;17.10;92.40;;;;;;4929795;29;20443;-72
2022/10/06 13:34:03;;;;;;;5.40;1.60;;;17.10;92.40;;;;;;4915366;29;20497;-72
2022/10/06 13:36:45;;;;;;;8.93;2.50;;;17.10;92.40;;;;;;4930849;29;20524;-72
2022/10/06 13:39:18;;;;;;;4.17;1.23;;;17.10;92.40;;;;;;4949033;29;20413;-72
2022/10/06 13:42:29;;;;;;;2.50;1.20;;;17.10;92.40;;;;;;4875893;29;20428;-72
2022/10/06 13:45:03;;;;;;;4.83;1.60;;;17.10;92.30;;;;;;4878253;29;20427;-72
2022/10/06 13:47:33;;;;;;;5.37;1.50;;;17.10;92.40;;;;;;4925456;28;20826;-72